Time;durP1;ratioP1;P1;durP2;ratioP2;P2;SDS_P1;SDS_P2;PMS_P1;PMS_P2;Temp;Humidity;BMP_temperature;BMP_pressure;BME280_temperature;BME280_humidity;BME280_pressure;Samples;Min_cycle;Max_cycle;Signal;HPM_P1;HPM_P2
2022/06/04 00:01:08;;;;;;;;;;;;;;;15.06;68.74;101305.27;1674614;86;20219;-64
2022/06/04 00:04:13;;;;;;;;;;;;;;;15.04;68.77;101305.95;1693894;85;20194;-62
2022/06/04 00:07:18;;;;;;;;;;;;;;;15.03;68.74;101300.12;1693425;84;20606;-63
2022/06/04 00:17:13;;;;;;;;;;;;;;;14.92;68.78;101304.67;1693382;84;20277;-62
2022/06/04 00:20:20;;;;;;;;;;;;;;;14.90;68.84;101298.47;1693325;84;20310;-66
2022/06/04 00:23:26;;;;;;;;;;;;;;;14.85;68.87;101301.77;1693147;84;20214;-64
2022/06/04 00:26:31;;;;;;;;;;;;;;;14.83;68.89;101307.11;1669200;85;20218;-65
2022/06/04 00:29:38;;;;;;;;;;;;;;;14.79;68.85;101309.36;1693018;84;20225;-65
2022/06/04 00:32:43;;;;;;;;;;;;;;;14.76;68.84;101305.59;1692997;84;20230;-66
2022/06/04 00:35:48;;;;;;;;;;;;;;;14.74;68.89;101301.31;1693165;84;20218;-63
2022/06/04 00:38:53;;;;;;;;;;;;;;;14.71;68.91;101297.54;1693525;84;20222;-64
2022/06/04 00:42:14;;;;;;;;;;;;;;;14.68;68.92;101295.98;1693591;84;20198;-65
2022/06/04 00:45:32;;;;;;;;;;;;;;;14.64;68.88;101295.15;1708640;84;20544;-65
2022/06/04 00:48:37;;;;;;;;;;;;;;;14.56;68.76;101294.68;1678968;85;20187;-65
2022/06/04 00:51:41;;;;;;;;;;;;;;;14.48;68.73;101291.09;1684021;85;20207;-66
2022/06/04 00:54:51;;;;;;;;;;;;;;;14.45;68.83;101294.20;1683865;85;20605;-66
2022/06/04 00:58:06;;;;;;;;;;;;;;;14.43;68.93;101288.04;1682461;85;20223;-64
2022/06/04 01:01:14;;;;;;;;;;;;;;;14.39;69.03;101297.17;1682897;85;20203;-61
2022/06/04 01:04:47;;;;;;;;;;;;;;;14.38;69.02;101297.35;1682956;85;20230;-64
2022/06/04 01:08:06;;;;;;;;;;;;;;;14.33;69.01;101304.78;1685529;85;20191;-65
2022/06/04 01:11:15;;;;;;;;;;;;;;;14.31;69.09;101304.59;1707778;84;20204;-62
2022/06/04 01:14:26;;;;;;;;;;;;;;;14.28;69.16;101301.69;1703509;84;20236;-65
2022/06/04 01:17:31;;;;;;;;;;;;;;;14.25;69.19;101297.05;1673686;86;20243;-63
2022/06/04 01:20:41;;;;;;;;;;;;;;;14.22;69.24;101294.62;1672427;85;20215;-63
2022/06/04 01:24:16;;;;;;;;;;;;;;;14.19;69.24;101293.59;1703556;84;20212;-63
2022/06/04 01:27:27;;;;;;;;;;;;;;;14.17;69.26;101295.66;1707702;84;20556;-65
2022/06/04 01:30:55;;;;;;;;;;;;;;;14.13;69.29;101299.28;1707973;84;20882;-64
2022/06/04 01:34:03;;;;;;;;;;;;;;;14.09;69.28;101297.93;1707873;84;20525;-64
2022/06/04 01:37:11;;;;;;;;;;;;;;;14.07;69.32;101299.99;1678157;85;20588;-65
2022/06/04 01:43:59;;;;;;;;;;;;;;;14.03;69.32;101289.52;1703539;84;20308;-66
2022/06/04 01:47:06;;;;;;;;;;;;;;;14.01;69.37;101284.18;1707968;84;20215;-62
2022/06/04 01:50:12;;;;;;;;;;;;;;;13.98;69.42;101284.53;1707902;84;20185;-64
2022/06/04 01:53:17;;;;;;;;;;;;;;;13.98;69.49;101285.05;1707890;84;20239;-64
2022/06/04 01:56:25;;;;;;;;;;;;;;;13.99;69.53;101282.62;1703929;84;20633;-64
2022/06/04 01:59:44;;;;;;;;;;;;;;;13.98;69.55;101286.42;1696380;85;20530;-64
2022/06/04 02:03:01;;;;;;;;;;;;;;;13.98;69.62;101279.03;1696572;84;20659;-66
2022/06/04 02:06:19;;;;;;;;;;;;;;;14.00;69.67;101277.48;1696464;85;20185;-67
2022/06/04 02:09:23;;;;;;;;;;;;;;;14.01;69.71;101273.67;1696463;85;20544;-64
2022/06/04 02:12:28;;;;;;;;;;;;;;;14.01;69.71;101279.19;1696303;85;20517;-64
2022/06/04 02:15:39;;;;;;;;;;;;;;;14.03;69.74;101285.38;1696436;84;20225;-65
2022/06/04 02:18:45;;;;;;;;;;;;;;;14.03;69.72;101282.13;1696382;85;20193;-64
2022/06/04 02:21:52;;;;;;;;;;;;;;;14.04;69.64;101280.20;1696437;84;20197;-64
2022/06/04 02:24:57;;;;;;;;;;;;;;;14.03;69.64;101279.37;1696379;85;20201;-63
2022/06/04 02:28:04;;;;;;;;;;;;;;;14.04;69.68;101292.59;1696422;85;20209;-63
2022/06/04 02:31:13;;;;;;;;;;;;;;;14.07;69.75;101293.61;1696796;84;20189;-64
2022/06/04 02:34:24;;;;;;;;;;;;;;;14.10;69.79;101291.37;1696339;85;20232;-64
2022/06/04 02:37:40;;;;;;;;;;;;;;;14.15;69.79;101292.22;1716858;83;20551;-63
2022/06/04 02:40:48;;;;;;;;;;;;;;;14.19;69.78;101282.58;1725221;83;20194;-64
2022/06/04 02:44:14;;;;;;;;;;;;;;;14.21;69.80;101286.00;1710488;83;20246;-62
2022/06/04 02:47:25;;;;;;;;;;;;;;;14.24;69.78;101285.67;1725236;83;20207;-64
2022/06/04 02:50:33;;;;;;;;;;;;;;;14.30;69.84;101293.25;1721287;83;20292;-64
2022/06/04 02:53:39;;;;;;;;;;;;;;;14.38;69.89;101291.84;1724541;83;20222;-63
2022/06/04 02:56:43;;;;;;;;;;;;;;;14.44;69.90;101295.25;1724658;83;20250;-62
2022/06/04 02:59:50;;;;;;;;;;;;;;;14.51;69.92;101299.86;1711805;82;20203;-65
2022/06/04 03:02:54;;;;;;;;;;;;;;;14.59;69.92;101297.58;1734159;82;20210;-63
2022/06/04 03:06:06;;;;;;;;;;;;;;;14.66;69.89;101294.46;1734557;82;20289;-64
2022/06/04 03:09:15;;;;;;;;;;;;;;;14.74;69.90;101288.91;1734435;83;20246;-63
2022/06/04 03:12:21;;;;;;;;;;;;;;;14.80;69.89;101287.67;1734549;82;20289;-64
2022/06/04 03:15:29;;;;;;;;;;;;;;;14.90;69.93;101281.92;1734655;82;20210;-64
2022/06/04 03:18:33;;;;;;;;;;;;;;;14.98;69.95;101279.95;1735208;82;20230;-63
2022/06/04 03:21:39;;;;;;;;;;;;;;;15.07;69.96;101275.25;1735169;82;20214;-62
2022/06/04 03:24:44;;;;;;;;;;;;;;;15.17;69.94;101275.01;1734953;82;20187;-61
2022/06/04 03:27:49;;;;;;;;;;;;;;;15.26;69.92;101262.86;1735421;82;20271;-65
2022/06/04 03:30:57;;;;;;;;;;;;;;;15.32;69.83;101262.15;1718400;83;20214;-62
2022/06/04 03:34:03;;;;;;;;;;;;;;;15.36;69.80;101273.14;1735208;82;20241;-60
2022/06/04 03:37:09;;;;;;;;;;;;;;;15.42;69.86;101273.30;1734929;82;20199;-62
2022/06/04 03:40:16;;;;;;;;;;;;;;;15.52;69.89;101267.00;1735035;82;20198;-62
2022/06/04 03:43:23;;;;;;;;;;;;;;;15.60;69.88;101259.16;1735060;82;20273;-62
2022/06/04 03:46:32;;;;;;;;;;;;;;;15.66;69.87;101257.02;1734910;82;20226;-64
2022/06/04 03:49:38;;;;;;;;;;;;;;;15.75;69.87;101250.37;1735034;82;20314;-64
2022/06/04 03:52:45;;;;;;;;;;;;;;;15.83;69.82;101253.05;1734939;82;20210;-63
2022/06/04 03:55:50;;;;;;;;;;;;;;;15.89;69.83;101252.28;1734924;82;20251;-66
2022/06/04 03:58:57;;;;;;;;;;;;;;;15.96;69.80;101254.13;1735120;82;20191;-62
2022/06/04 04:02:04;;;;;;;;;;;;;;;16.04;69.87;101260.95;1732528;82;20305;-62
2022/06/04 04:05:11;;;;;;;;;;;;;;;16.12;69.87;101253.08;1735060;82;20190;-62
2022/06/04 04:08:16;;;;;;;;;;;;;;;16.20;69.86;101248.33;1735161;82;20242;-62
2022/06/04 04:11:24;;;;;;;;;;;;;;;16.27;69.83;101253.92;1735110;82;20318;-65
2022/06/04 04:14:30;;;;;;;;;;;;;;;16.34;69.85;101248.84;1735133;82;20258;-64
2022/06/04 04:17:36;;;;;;;;;;;;;;;16.42;69.87;101255.64;1735941;82;20621;-62
2022/06/04 04:20:44;;;;;;;;;;;;;;;16.50;69.86;101264.89;1734917;82;20559;-62
2022/06/04 04:23:55;;;;;;;;;;;;;;;16.61;69.91;101258.88;1735093;82;20555;-65
2022/06/04 04:27:07;;;;;;;;;;;;;;;16.71;69.90;101260.30;1735216;82;20246;-60
2022/06/04 04:30:13;;;;;;;;;;;;;;;16.82;69.92;101255.64;1731164;82;20704;-63
2022/06/04 04:33:18;;;;;;;;;;;;;;;16.94;69.88;101246.28;1667164;86;20270;-64
2022/06/04 04:36:27;;;;;;;;;;;;;;;17.04;69.82;101255.13;1690896;85;20249;-63
2022/06/04 04:39:31;;;;;;;;;;;;;;;17.11;69.75;101254.14;1689983;85;20571;-62
2022/06/04 04:42:40;;;;;;;;;;;;;;;17.21;69.72;101256.58;1690221;85;20233;-63
2022/06/04 04:45:46;;;;;;;;;;;;;;;17.29;69.73;101264.23;1690431;85;20210;-64
2022/06/04 04:48:53;;;;;;;;;;;;;;;17.37;69.64;101260.47;1690291;85;20219;-66
2022/06/04 04:51:59;;;;;;;;;;;;;;;17.43;69.60;101256.38;1690412;85;20521;-64
2022/06/04 04:55:04;;;;;;;;;;;;;;;17.49;69.56;101239.00;1705324;84;20189;-64
2022/06/04 04:58:16;;;;;;;;;;;;;;;17.57;69.57;101239.38;1709883;82;20548;-60
2022/06/04 05:01:27;;;;;;;;;;;;;;;17.67;69.60;101238.52;1667120;83;20223;-57
2022/06/04 05:04:36;;;;;;;;;;;;;;;17.74;69.53;101243.04;1678591;84;20559;-59
2022/06/04 05:07:41;;;;;;;;;;;;;;;17.82;69.50;101248.43;1678848;85;20592;-57
2022/06/04 05:10:51;;;;;;;;;;;;;;;17.90;69.47;101239.97;1672511;85;20266;-59
2022/06/04 05:14:03;;;;;;;;;;;;;;;17.97;69.40;101241.40;1683906;84;20218;-55
2022/06/04 05:17:10;;;;;;;;;;;;;;;18.05;69.40;101245.92;1681619;84;20605;-57
2022/06/04 05:20:23;;;;;;;;;;;;;;;18.14;69.44;101244.17;1687143;85;20218;-57
2022/06/04 05:23:27;;;;;;;;;;;;;;;18.24;69.40;101241.89;1667804;85;20224;-59
2022/06/04 05:26:36;;;;;;;;;;;;;;;18.33;69.43;101239.27;1653922;87;20237;-62
2022/06/04 05:29:42;;;;;;;;;;;;;;;18.46;69.44;101233.83;1686616;85;20194;-65
2022/06/04 05:32:52;;;;;;;;;;;;;;;18.56;69.39;101231.54;1687728;85;20210;-62
2022/06/04 05:35:54;;;;;;;;;;;;;;;18.65;69.28;101227.52;1668040;85;20600;-61
2022/06/04 05:39:01;;;;;;;;;;;;;;;18.74;69.26;101230.41;1671689;84;20249;-64
2022/06/04 05:42:10;;;;;;;;;;;;;;;18.87;69.25;101235.15;1683574;84;20214;-63
2022/06/04 05:45:15;;;;;;;;;;;;;;;18.95;69.15;101235.83;1685555;85;20234;-65
2022/06/04 05:48:22;;;;;;;;;;;;;;;19.02;69.08;101233.94;1685969;85;20214;-65
2022/06/04 05:51:30;;;;;;;;;;;;;;;19.11;69.00;101231.80;1687132;85;20258;-64
2022/06/04 05:54:35;;;;;;;;;;;;;;;19.23;69.01;101242.07;1684455;84;20567;-64
2022/06/04 05:57:42;;;;;;;;;;;;;;;19.31;68.89;101236.91;1665812;85;20520;-63
2022/06/04 06:00:48;;;;;;;;;;;;;;;19.39;68.77;101237.22;1664994;85;20650;-64
2022/06/04 06:03:54;;;;;;;;;;;;;;;19.47;68.66;101235.11;1663953;84;20272;-63
2022/06/04 06:07:01;;;;;;;;;;;;;;;19.52;68.55;101234.46;1650327;85;20250;-64
2022/06/04 06:10:13;;;;;;;;;;;;;;;19.62;68.54;101238.52;1656489;86;20262;-64
2022/06/04 06:13:18;;;;;;;;;;;;;;;19.74;68.46;101235.95;1643016;86;20230;-64
2022/06/04 06:16:31;;;;;;;;;;;;;;;19.83;68.37;101234.66;1654774;86;20558;-67
2022/06/04 06:19:42;;;;;;;;;;;;;;;19.95;68.25;101231.53;1653581;86;20216;-61
2022/06/04 06:22:47;;;;;;;;;;;;;;;20.07;68.20;101231.20;1654311;86;20233;-64
2022/06/04 06:25:58;;;;;;;;;;;;;;;20.08;67.99;101225.95;1642189;86;20221;-63
2022/06/04 06:29:04;;;;;;;;;;;;;;;20.09;67.92;101225.73;1656183;86;20226;-64
2022/06/04 06:32:11;;;;;;;;;;;;;;;20.19;67.88;101226.70;1657895;86;20257;-63
2022/06/04 06:35:15;;;;;;;;;;;;;;;20.28;67.75;101228.20;1657449;86;20269;-60
2022/06/04 06:38:24;;;;;;;;;;;;;;;20.34;67.72;101221.75;1654924;86;20623;-60
2022/06/04 06:41:31;;;;;;;;;;;;;;;20.36;67.49;101224.63;1636224;86;20525;-65
2022/06/04 06:44:37;;;;;;;;;;;;;;;20.32;67.33;101232.23;1657639;86;20221;-60
2022/06/04 06:47:47;;;;;;;;;;;;;;;20.31;67.17;101223.03;1654498;86;20549;-62
2022/06/04 06:50:52;;;;;;;;;;;;;;;20.33;67.14;101219.50;1657346;86;20238;-63
2022/06/04 06:53:58;;;;;;;;;;;;;;;20.45;67.12;101226.64;1658239;86;20214;-64
2022/06/04 06:57:05;;;;;;;;;;;;;;;20.53;67.03;101227.78;1655387;86;20269;-64
2022/06/04 07:00:12;;;;;;;;;;;;;;;20.61;66.93;101233.11;1650214;86;20264;-65
2022/06/04 07:03:20;;;;;;;;;;;;;;;20.70;66.83;101230.37;1656139;85;20617;-63
2022/06/04 07:06:35;;;;;;;;;;;;;;;20.78;66.76;101220.39;1683015;85;20215;-65
2022/06/04 07:09:41;;;;;;;;;;;;;;;20.86;66.65;101219.27;1644140;85;20219;-63
2022/06/04 07:12:49;;;;;;;;;;;;;;;20.92;66.59;101217.84;1630998;87;20267;-63
2022/06/04 07:15:57;;;;;;;;;;;;;;;20.98;66.36;101218.37;1636097;86;20272;-61
2022/06/04 07:19:06;;;;;;;;;;;;;;;21.05;66.35;101211.38;1631306;87;20219;-64
2022/06/04 07:22:12;;;;;;;;;;;;;;;21.09;66.16;101213.48;1631042;87;20234;-62
2022/06/04 07:25:17;;;;;;;;;;;;;;;21.12;66.11;101221.38;1630671;87;20216;-62
2022/06/04 07:28:26;;;;;;;;;;;;;;;21.25;66.04;101199.02;1638334;85;20286;-64
2022/06/04 07:31:31;;;;;;;;;;;;;;;21.40;65.88;101202.34;1665787;84;20596;-61
2022/06/04 07:34:39;;;;;;;;;;;;;;;21.59;65.85;101201.86;1657820;86;20208;-63
2022/06/04 07:37:48;;;;;;;;;;;;;;;21.78;65.68;101202.25;1658391;86;20213;-65
2022/06/04 07:40:54;;;;;;;;;;;;;;;21.82;65.47;101200.17;1658160;86;20252;-64
2022/06/04 07:44:01;;;;;;;;;;;;;;;21.92;65.40;101200.50;1648531;85;20199;-64
2022/06/04 07:47:06;;;;;;;;;;;;;;;22.05;65.23;101195.33;1635466;85;20332;-63
2022/06/04 07:50:12;;;;;;;;;;;;;;;22.27;65.18;101181.77;1653164;85;20236;-62
2022/06/04 07:53:16;;;;;;;;;;;;;;;22.51;65.05;101186.41;1657354;86;20284;-66
2022/06/04 07:56:25;;;;;;;;;;;;;;;22.59;64.69;101183.34;1657744;85;20284;-63
2022/06/04 07:59:35;;;;;;;;;;;;;;;22.66;64.48;101179.92;1642430;85;20210;-61
2022/06/04 08:02:45;;;;;;;;;;;;;;;22.81;64.36;101188.72;1692571;84;20218;-64
2022/06/04 08:05:50;;;;;;;;;;;;;;;22.99;64.20;101193.70;1666662;84;20234;-63
2022/06/04 08:09:01;;;;;;;;;;;;;;;23.12;64.02;101185.70;1673393;85;20215;-63
2022/06/04 08:12:07;;;;;;;;;;;;;;;23.10;63.67;101183.11;1673039;85;20590;-63
2022/06/04 08:15:18;;;;;;;;;;;;;;;23.05;63.52;101178.81;1670918;84;20226;-63
2022/06/04 08:18:25;;;;;;;;;;;;;;;23.10;63.47;101194.86;1672253;85;20549;-63
2022/06/04 08:21:33;;;;;;;;;;;;;;;23.17;63.41;101182.48;1682881;85;20579;-63
2022/06/04 08:24:43;;;;;;;;;;;;;;;23.31;63.34;101187.34;1672480;85;20567;-61
2022/06/04 08:27:49;;;;;;;;;;;;;;;23.50;63.31;101184.23;1678160;85;20674;-63
2022/06/04 08:30:56;;;;;;;;;;;;;;;23.55;62.91;101172.31;1683961;85;20574;-64
2022/06/04 08:34:03;;;;;;;;;;;;;;;23.54;62.85;101172.02;1686545;84;20230;-61
2022/06/04 08:37:10;;;;;;;;;;;;;;;23.67;62.81;101177.92;1679363;85;20649;-62
2022/06/04 08:40:19;;;;;;;;;;;;;;;23.57;62.52;101171.00;1681554;85;20223;-62
2022/06/04 08:43:27;;;;;;;;;;;;;;;23.40;62.30;101164.95;1671526;85;20575;-64
2022/06/04 08:46:37;;;;;;;;;;;;;;;23.42;62.45;101159.98;1659645;85;20230;-63
2022/06/04 08:49:54;;;;;;;;;;;;;;;23.66;62.55;101160.29;1674364;85;20247;-64
2022/06/04 08:53:01;;;;;;;;;;;;;;;23.77;62.21;101155.24;1686548;85;20214;-64
2022/06/04 08:59:50;;;;;;;;;;;;;;;23.72;61.88;101153.75;1660074;86;20248;-63
2022/06/04 09:03:09;;;;;;;;;;;;;;;23.79;61.79;101143.81;1686085;85;20218;-62
2022/06/04 09:06:53;;;;;;;;;;;;;;;23.93;61.68;101139.70;1677105;84;20215;-61
2022/06/04 09:10:06;;;;;;;;;;;;;;;23.82;61.33;101151.75;1670148;84;20251;-63
2022/06/04 09:13:36;;;;;;;;;;;;;;;23.50;61.19;101140.03;1669596;86;20568;-64
2022/06/04 09:16:48;;;;;;;;;;;;;;;23.51;61.39;101134.77;1670416;85;20211;-63
2022/06/04 09:19:57;;;;;;;;;;;;;;;23.63;61.25;101128.63;1670716;84;20457;-63
2022/06/04 09:23:13;;;;;;;;;;;;;;;23.62;61.07;101124.14;1670453;85;20215;-64
2022/06/04 09:26:25;;;;;;;;;;;;;;;23.65;61.03;101132.03;1665737;86;20580;-64
2022/06/04 09:29:52;;;;;;;;;;;;;;;23.63;60.97;101126.39;1669095;85;20300;-65
2022/06/04 09:33:20;;;;;;;;;;;;;;;23.56;60.81;101118.13;1669294;85;20251;-65
2022/06/04 09:36:38;;;;;;;;;;;;;;;23.58;60.74;101114.52;1679977;85;20218;-62
2022/06/04 09:39:47;;;;;;;;;;;;;;;23.69;60.70;101117.03;1669220;85;20215;-65
2022/06/04 09:42:56;;;;;;;;;;;;;;;23.72;60.67;101110.94;1679135;85;20247;-62
2022/06/04 09:46:07;;;;;;;;;;;;;;;23.67;60.53;101120.07;1678211;85;20247;-63
2022/06/04 09:49:19;;;;;;;;;;;;;;;23.64;60.36;101118.59;1679361;85;20203;-62
2022/06/04 09:52:31;;;;;;;;;;;;;;;23.54;60.28;101107.72;1679214;85;20207;-63
2022/06/04 09:55:35;;;;;;;;;;;;;;;23.64;60.41;101114.40;1679178;85;20208;-64
2022/06/04 09:58:50;;;;;;;;;;;;;;;23.80;60.50;101111.41;1679237;85;20536;-63
2022/06/04 10:02:02;;;;;;;;;;;;;;;23.88;60.27;101106.84;1679715;85;20233;-65
2022/06/04 10:05:14;;;;;;;;;;;;;;;23.95;60.19;101100.58;1679191;85;20596;-62
2022/06/04 10:08:21;;;;;;;;;;;;;;;24.03;59.94;101107.23;1679143;85;20583;-65
2022/06/04 10:11:31;;;;;;;;;;;;;;;24.08;59.77;101096.16;1679716;85;20243;-63
2022/06/04 10:14:40;;;;;;;;;;;;;;;24.12;59.59;101093.14;1679599;85;20551;-65
2022/06/04 10:17:46;;;;;;;;;;;;;;;24.11;59.49;101086.40;1679492;85;20244;-62
2022/06/04 10:21:09;;;;;;;;;;;;;;;24.20;59.38;101081.56;1679151;85;20196;-62
2022/06/04 10:24:34;;;;;;;;;;;;;;;24.18;59.20;101080.13;1679498;85;20195;-63
2022/06/04 10:28:13;;;;;;;;;;;;;;;24.20;59.17;101070.91;1672146;84;20562;-63
2022/06/04 10:31:37;;;;;;;;;;;;;;;24.34;59.18;101068.16;1664265;85;20444;-65
2022/06/04 10:35:00;;;;;;;;;;;;;;;24.47;59.06;101071.49;1665075;81;20215;-62
2022/06/04 10:38:14;;;;;;;;;;;;;;;24.58;58.88;101067.78;1673585;85;20215;-63
2022/06/04 10:41:27;;;;;;;;;;;;;;;24.78;58.89;101057.56;1675534;85;20219;-56
2022/06/04 10:44:50;;;;;;;;;;;;;;;24.98;58.59;101060.17;1673500;85;20239;-59
2022/06/04 10:47:58;;;;;;;;;;;;;;;24.94;58.24;101056.73;1672549;85;20212;-56
2022/06/04 10:51:27;;;;;;;;;;;;;;;24.88;58.19;101055.78;1661047;86;20582;-57
2022/06/04 10:54:56;;;;;;;;;;;;;;;24.98;58.13;101055.97;1661104;86;20501;-58
2022/06/04 10:58:07;;;;;;;;;;;;;;;25.06;58.00;101053.28;1661207;86;20695;-55
2022/06/04 11:01:43;;;;;;;;;;;;;;;25.28;58.05;101056.16;1661235;86;20245;-56
2022/06/04 11:04:55;;;;;;;;;;;;;;;25.42;57.71;101060.37;1661772;86;20213;-56
2022/06/04 11:08:14;;;;;;;;;;;;;;;25.49;57.59;101047.86;1660987;86;20220;-58
2022/06/04 11:11:32;;;;;;;;;;;;;;;25.60;57.38;101037.09;1661064;86;20217;-58
2022/06/04 11:14:53;;;;;;;;;;;;;;;25.66;57.22;101052.88;1661485;86;20244;-58
2022/06/04 11:28:19;;;;;;;;;;;;;;;25.55;56.44;101041.22;1583655;91;20232;-55
2022/06/04 11:31:32;;;;;;;;;;;;;;;25.57;56.34;101020.78;1561269;92;20213;-55
2022/06/04 11:35:04;;;;;;;;;;;;;;;25.70;56.24;101030.77;1561348;91;20554;-59
2022/06/04 11:38:27;;;;;;;;;;;;;;;25.72;56.02;101025.77;1552418;92;20579;-56
2022/06/04 11:41:37;;;;;;;;;;;;;;;25.78;55.74;101024.72;1539913;92;20591;-57
2022/06/04 11:45:22;;;;;;;;;;;;;;;25.82;55.50;101021.13;1539571;92;20773;-56
2022/06/04 11:48:53;;;;;;;;;;;;;;;25.79;55.40;101016.04;1576401;91;20216;-52
2022/06/04 11:52:11;;;;;;;;;;;;;;;25.84;55.27;101020.32;1593742;87;20585;-57
2022/06/04 12:02:45;;;;;;;;;;;;;;;25.80;54.50;101012.69;1651479;86;20227;-57
2022/06/04 12:17:11;;;;;;;;;;;;;;;25.72;53.79;100996.31;1634132;88;20207;-56
2022/06/04 12:24:17;;;;;;;;;;;;;;;25.53;53.34;100996.32;1665041;86;20260;-57
2022/06/04 12:27:28;;;;;;;;;;;;;;;25.48;53.25;100992.04;1639179;86;20628;-57
2022/06/04 12:30:42;;;;;;;;;;;;;;;25.53;53.06;100992.95;1654043;86;20533;-59
2022/06/04 12:33:42;;;;;;;;;;;;;;;25.52;52.92;100995.47;1655941;86;20229;-56
2022/06/04 12:36:38;;;;;;;;;;;;;;;25.60;52.78;100994.16;1644567;85;20238;-59
2022/06/04 12:39:46;;;;;;;;;;;;;;;25.60;52.53;100993.62;1646060;87;20308;-55
2022/06/04 12:42:54;;;;;;;;;;;;;;;25.54;52.21;100991.00;1638566;87;20611;-55
2022/06/04 12:46:33;;;;;;;;;;;;;;;25.55;52.07;100989.87;1645262;87;20296;-58
2022/06/04 12:49:42;;;;;;;;;;;;;;;25.51;51.79;100981.16;1659687;86;20244;-57
2022/06/04 12:53:07;;;;;;;;;;;;;;;25.46;51.66;100976.02;1660306;86;20232;-60
2022/06/04 12:56:14;;;;;;;;;;;;;;;25.38;51.57;100977.31;1660423;86;20337;-59
2022/06/04 12:59:36;;;;;;;;;;;;;;;25.36;51.40;100973.05;1660731;86;20341;-58
2022/06/04 13:02:42;;;;;;;;;;;;;;;25.40;51.26;100963.91;1659927;86;20265;-58
2022/06/04 13:06:08;;;;;;;;;;;;;;;25.47;51.16;100955.27;1632809;88;20239;-57
2022/06/04 13:09:21;;;;;;;;;;;;;;;25.50;50.94;100957.01;1632824;87;20219;-56
2022/06/04 13:12:51;;;;;;;;;;;;;;;25.51;50.69;100939.09;1633027;87;20267;-58
2022/06/04 13:16:03;;;;;;;;;;;;;;;25.54;50.76;100934.91;1591843;90;20250;-57
2022/06/04 13:19:16;;;;;;;;;;;;;;;25.56;50.53;100941.12;1636727;86;20601;-59
2022/06/04 13:22:31;;;;;;;;;;;;;;;25.57;50.35;100938.59;1632841;88;20231;-58
2022/06/04 13:25:48;;;;;;;;;;;;;;;25.60;50.27;100946.48;1625938;87;20624;-57
2022/06/04 13:28:54;;;;;;;;;;;;;;;25.63;50.28;100943.16;1629034;88;20808;-55
2022/06/04 13:32:02;;;;;;;;;;;;;;;25.66;50.03;100938.42;1644473;87;20232;-57
2022/06/04 13:35:12;;;;;;;;;;;;;;;25.70;49.89;100941.02;1660350;86;20212;-55
2022/06/04 13:38:21;;;;;;;;;;;;;;;25.69;49.73;100930.92;1663278;84;20205;-56
2022/06/04 13:44:53;;;;;;;;;;;;;;;25.71;49.43;100924.47;1660352;86;20557;-57
2022/06/04 13:48:00;;;;;;;;;;;;;;;25.68;49.28;100927.25;1660401;86;20581;-56
2022/06/04 13:51:05;;;;;;;;;;;;;;;25.73;49.19;100926.46;1660239;86;20228;-57
2022/06/04 13:54:10;;;;;;;;;;;;;;;25.71;48.98;100917.45;1660470;86;20225;-56
2022/06/04 13:57:38;;;;;;;;;;;;;;;25.74;48.92;100912.72;1660250;86;20259;-57
2022/06/04 14:00:45;;;;;;;;;;;;;;;25.76;48.71;100914.72;1659809;86;20236;-57
2022/06/04 14:07:22;;;;;;;;;;;;;;;25.88;48.56;100912.59;1659945;86;20260;-59
2022/06/04 14:10:29;;;;;;;;;;;;;;;25.94;48.38;100903.16;1659875;86;20225;-56
2022/06/04 14:13:42;;;;;;;;;;;;;;;25.98;48.22;100893.08;1656366;86;20260;-55
2022/06/04 14:17:00;;;;;;;;;;;;;;;26.03;48.16;100894.58;1655764;86;20220;-56
2022/06/04 14:20:32;;;;;;;;;;;;;;;26.07;48.05;100890.11;1656289;86;20280;-58
2022/06/04 14:24:01;;;;;;;;;;;;;;;26.11;47.79;100882.88;1653006;85;20256;-57
2022/06/04 14:27:12;;;;;;;;;;;;;;;26.04;47.57;100869.59;1631803;88;20264;-61
2022/06/04 14:30:42;;;;;;;;;;;;;;;25.95;47.42;100869.76;1655551;86;20208;-56
2022/06/04 14:33:50;;;;;;;;;;;;;;;25.89;47.33;100870.83;1659497;86;20228;-58
2022/06/04 14:36:57;;;;;;;;;;;;;;;25.83;47.25;100874.69;1645178;86;20224;-56
2022/06/04 14:40:04;;;;;;;;;;;;;;;25.84;47.14;100867.95;1656234;84;20232;-58
2022/06/04 14:43:30;;;;;;;;;;;;;;;25.86;46.96;100878.38;1654030;87;20589;-58
2022/06/04 14:47:14;;;;;;;;;;;;;;;25.80;46.81;100875.22;1651473;86;20504;-57
2022/06/04 14:50:23;;;;;;;;;;;;;;;25.85;46.69;100875.25;1654163;87;20245;-58
2022/06/04 14:53:27;;;;;;;;;;;;;;;26.00;46.50;100870.70;1654172;87;20221;-59
2022/06/04 14:57:00;;;;;;;;;;;;;;;26.32;46.35;100866.52;1653093;87;20228;-63
2022/06/04 15:00:26;;;;;;;;;;;;;;;26.50;45.99;100865.27;1642061;87;20285;-56
2022/06/04 15:03:35;;;;;;;;;;;;;;;26.45;45.88;100856.22;1642242;87;20230;-56
2022/06/04 15:06:44;;;;;;;;;;;;;;;26.32;45.67;100864.53;1623167;87;20232;-57
2022/06/04 15:10:01;;;;;;;;;;;;;;;26.20;45.49;100861.62;1642323;87;20221;-57
2022/06/04 15:13:26;;;;;;;;;;;;;;;26.06;45.40;100864.57;1642748;87;20229;-56
2022/06/04 15:16:37;;;;;;;;;;;;;;;25.94;45.24;100859.66;1643565;87;20221;-57
2022/06/04 15:20:16;;;;;;;;;;;;;;;25.84;45.17;100861.80;1639715;87;20266;-56
2022/06/04 15:23:30;;;;;;;;;;;;;;;25.87;45.23;100862.67;1642382;87;20237;-55
2022/06/04 15:26:44;;;;;;;;;;;;;;;26.00;45.10;100862.83;1620530;87;20580;-57
2022/06/04 15:33:57;;;;;;;;;;;;;;;26.03;44.73;100849.12;1638774;86;20634;-57
2022/06/04 15:37:10;;;;;;;;;;;;;;;25.99;44.65;100851.30;1641891;87;20225;-57
2022/06/04 15:40:16;;;;;;;;;;;;;;;26.04;44.55;100861.17;1641509;85;20218;-57
2022/06/04 15:43:28;;;;;;;;;;;;;;;26.15;44.33;100861.02;1663699;85;20227;-57
2022/06/04 15:46:45;;;;;;;;;;;;;;;26.48;43.93;100856.53;1679001;85;20270;-56
2022/06/04 15:56:42;;;;;;;;;;;;;;;26.72;43.40;100848.59;1666864;84;20642;-59
2022/06/04 15:59:46;;;;;;;;;;;;;;;26.45;43.47;100847.80;1667789;85;20219;-58
2022/06/04 16:02:56;;;;;;;;;;;;;;;26.34;43.48;100849.68;1647739;87;20221;-58
2022/06/04 16:06:15;;;;;;;;;;;;;;;26.24;43.42;100852.97;1649322;87;20269;-58
2022/06/04 16:09:30;;;;;;;;;;;;;;;26.20;43.45;100848.44;1648962;86;20222;-58
2022/06/04 16:12:44;;;;;;;;;;;;;;;26.27;43.37;100849.63;1653719;85;20229;-58
2022/06/04 16:16:10;;;;;;;;;;;;;;;26.17;43.37;100855.13;1653297;87;20217;-57
2022/06/04 16:19:29;;;;;;;;;;;;;;;25.98;43.37;100853.25;1673739;85;20220;-56
2022/06/04 16:22:51;;;;;;;;;;;;;;;25.72;43.39;100862.48;1653299;87;20641;-58
2022/06/04 16:26:09;;;;;;;;;;;;;;;25.46;43.35;100855.45;1653022;87;20213;-58
2022/06/04 16:29:37;;;;;;;;;;;;;;;25.28;43.46;100859.39;1658296;85;20242;-57
2022/06/04 16:32:42;;;;;;;;;;;;;;;25.10;43.49;100858.88;1677476;85;20273;-58
2022/06/04 16:36:01;;;;;;;;;;;;;;;24.97;43.54;100848.89;1680361;85;20210;-57
2022/06/04 16:39:04;;;;;;;;;;;;;;;24.81;43.51;100840.83;1674633;85;20215;-57
2022/06/04 16:42:24;;;;;;;;;;;;;;;24.67;43.52;100839.47;1658677;85;20272;-56
2022/06/04 16:45:34;;;;;;;;;;;;;;;24.54;43.53;100845.41;1674363;86;20227;-60
2022/06/04 16:48:41;;;;;;;;;;;;;;;24.40;43.53;100841.81;1672280;86;20244;-58
2022/06/04 16:51:44;;;;;;;;;;;;;;;24.24;43.59;100834.26;1667500;85;20227;-59
2022/06/04 16:54:50;;;;;;;;;;;;;;;24.14;43.67;100842.47;1666261;86;20595;-58
2022/06/04 16:57:56;;;;;;;;;;;;;;;24.06;43.67;100833.09;1617676;88;20215;-58
2022/06/04 17:01:14;;;;;;;;;;;;;;;23.97;43.65;100845.27;1604224;89;20232;-58
2022/06/04 17:04:21;;;;;;;;;;;;;;;23.85;43.68;100831.84;1660251;86;20598;-58
2022/06/04 17:07:30;;;;;;;;;;;;;;;23.76;43.70;100830.56;1674217;86;20262;-57
2022/06/04 17:10:58;;;;;;;;;;;;;;;23.66;43.74;100828.14;1660327;86;20224;-59
2022/06/04 17:14:22;;;;;;;;;;;;;;;23.55;43.80;100827.93;1647349;87;20207;-58
2022/06/04 17:17:33;;;;;;;;;;;;;;;23.43;43.87;100826.28;1646551;87;20259;-58
2022/06/04 17:21:14;;;;;;;;;;;;;;;23.30;43.89;100827.96;1650177;85;20316;-58
2022/06/04 17:24:30;;;;;;;;;;;;;;;23.15;43.92;100820.64;1656418;86;20230;-59
2022/06/04 17:27:41;;;;;;;;;;;;;;;22.98;44.00;100816.89;1672814;86;20521;-59